createdAt,value
2022-08-07T00:04:09.530Z,59.93
2022-08-07T00:08:19.730Z,60.12
2022-08-07T00:11:26.703Z,60.13
2022-08-07T00:14:48.923Z,60.62
2022-08-07T00:17:56.288Z,60.89
2022-08-07T00:21:56.396Z,73.87
2022-08-07T00:25:03.892Z,72.40
2022-08-07T00:28:06.863Z,56.88
2022-08-07T00:31:01.775Z,50.50
2022-08-07T00:34:14.624Z,50.79
2022-08-07T00:37:23.506Z,51.47
2022-08-07T00:41:19.152Z,52.50
2022-08-07T00:45:09.634Z,53.36
2022-08-07T00:49:06.125Z,54.59
2022-08-07T00:52:51.485Z,56.09
2022-08-07T00:56:03.999Z,56.50
2022-08-07T00:59:35.717Z,57.15
2022-08-07T01:02:38.785Z,57.79
2022-08-07T01:05:53.635Z,58.00
2022-08-07T01:08:59.439Z,58.21
2022-08-07T01:12:33.676Z,58.90
2022-08-07T01:16:30.430Z,58.54
2022-08-07T01:23:36.881Z,59.06
2022-08-07T01:29:56.801Z,60.34
2022-08-07T01:33:55.886Z,60.45
2022-08-07T01:37:09.948Z,75.08
2022-08-07T01:41:00.514Z,67.31
2022-08-07T01:48:18.214Z,51.08
2022-08-07T01:51:24.224Z,51.98
2022-08-07T01:54:32.829Z,53.20
2022-08-07T01:58:05.589Z,54.36
2022-08-07T02:01:58.722Z,55.01
2022-08-07T02:04:55.725Z,56.19
2022-08-07T02:08:54.377Z,56.98
2022-08-07T02:12:05.227Z,57.55
2022-08-07T02:15:08.311Z,58.92
2022-08-07T02:18:17.756Z,59.54
2022-08-07T02:21:19.675Z,73.58
2022-08-07T02:25:07.510Z,72.49
2022-08-07T02:28:24.520Z,56.37
2022-08-07T02:31:32.657Z,52.07
2022-08-07T02:34:49.002Z,52.58
2022-08-07T02:37:52.593Z,53.62
2022-08-07T02:41:50.665Z,55.10
2022-08-07T02:48:10.235Z,57.35
2022-08-07T02:51:41.959Z,58.68
2022-08-07T02:54:42.628Z,74.47
2022-08-07T02:58:10.238Z,70.20
2022-08-07T03:01:36.429Z,57.61
2022-08-07T03:04:43.481Z,53.25
2022-08-07T03:08:07.514Z,54.36
2022-08-07T03:11:17.094Z,55.66
2022-08-07T03:14:18.209Z,57.38
2022-08-07T03:17:19.860Z,69.60
2022-08-07T03:20:47.622Z,70.56
2022-08-07T03:24:17.882Z,56.78
2022-08-07T03:28:09.643Z,52.59
2022-08-07T03:32:13.227Z,53.32
2022-08-07T03:35:26.353Z,55.05
2022-08-07T03:38:38.729Z,57.57
2022-08-07T03:41:42.591Z,72.69
2022-08-07T03:44:57.952Z,70.08
2022-08-07T03:48:10.083Z,63.11
2022-08-07T03:51:11.655Z,54.13
2022-08-07T03:54:35.159Z,51.76
2022-08-07T03:59:04.805Z,52.76
2022-08-07T04:02:16.457Z,54.43
2022-08-07T04:06:06.677Z,56.39
2022-08-07T04:10:19.413Z,74.16
2022-08-07T04:16:58.346Z,52.14
2022-08-07T04:20:06.314Z,48.65
2022-08-07T04:23:19.292Z,48.22
2022-08-07T04:26:22.158Z,47.19
2022-08-07T04:29:26.723Z,45.94
2022-08-07T04:32:34.123Z,44.65
2022-08-07T04:35:36.833Z,43.79
2022-08-07T04:38:41.423Z,42.69
2022-08-07T04:42:42.924Z,41.16
2022-08-07T04:46:04.554Z,39.27
2022-08-07T04:50:18.606Z,38.57
2022-08-07T04:58:24.305Z,36.31
2022-08-07T05:00:14.643Z,35.65
2022-08-07T05:03:49.885Z,35.53
2022-08-07T05:06:43.300Z,34.59
2022-08-07T05:09:45.796Z,33.89
2022-08-07T05:12:27.082Z,33.68
2022-08-07T05:15:23.600Z,33.67
2022-08-07T05:18:09.210Z,33.16
2022-08-07T05:20:44.134Z,34.33
2022-08-07T05:23:29.797Z,35.54
2022-08-07T05:26:13.805Z,36.88
2022-08-07T05:28:53.573Z,38.91
2022-08-07T05:31:35.299Z,40.87
2022-08-07T05:34:11.632Z,42.05
2022-08-07T05:36:49.013Z,43.58
2022-08-07T05:40:17.472Z,45.23
2022-08-07T05:42:12.447Z,46.41
2022-08-07T05:44:46.495Z,47.95
2022-08-07T05:47:20.923Z,48.66
2022-08-07T05:50:08.693Z,49.60
2022-08-07T05:52:38.228Z,50.98
2022-08-07T05:55:10.789Z,51.91
2022-08-07T05:57:41.945Z,53.06
2022-08-07T06:00:16.411Z,53.22
2022-08-07T06:02:52.174Z,54.18
2022-08-07T06:05:25.850Z,54.02
2022-08-07T06:08:13.961Z,53.84
2022-08-07T06:10:51.403Z,53.19
2022-08-07T06:14:11.822Z,53.48
2022-08-07T06:16:15.579Z,53.85
2022-08-07T06:18:51.786Z,54.57
2022-08-07T06:22:14.805Z,55.04
2022-08-07T06:24:52.339Z,54.02
2022-08-07T06:27:06.400Z,54.30
2022-08-07T06:29:39.064Z,55.08
2022-08-07T06:32:08.120Z,55.77
2022-08-07T06:34:36.920Z,56.24
2022-08-07T06:37:09.775Z,55.61
2022-08-07T06:40:13.427Z,55.73
2022-08-07T06:42:37.720Z,55.03
2022-08-07T06:45:15.500Z,55.63
2022-08-07T06:47:58.621Z,55.25
2022-08-07T06:50:30.419Z,54.51
2022-08-07T06:53:04.149Z,55.14
2022-08-07T06:56:00.451Z,55.46
2022-08-07T06:58:28.881Z,54.90
2022-08-07T07:01:03.144Z,54.69
2022-08-07T07:03:39.714Z,54.70
2022-08-07T07:06:23.831Z,54.74
2022-08-07T07:08:55.066Z,54.81
2022-08-07T07:12:10.593Z,54.67
2022-08-07T07:14:19.376Z,53.95
2022-08-07T07:16:55.595Z,53.88
2022-08-07T07:19:55.463Z,53.56
2022-08-07T07:22:36.056Z,53.13
2022-08-07T07:26:30.564Z,52.60
2022-08-07T07:28:42.337Z,52.30
2022-08-07T07:31:25.882Z,52.31
2022-08-07T07:34:05.546Z,51.55
2022-08-07T07:36:40.397Z,52.01
2022-08-07T07:39:12.166Z,51.69
2022-08-07T07:42:02.193Z,50.60
2022-08-07T07:44:36.779Z,50.48
2022-08-07T07:47:15.746Z,49.33
2022-08-07T07:50:32.770Z,49.02
2022-08-07T07:52:47.280Z,48.98
2022-08-07T07:55:20.794Z,48.65
2022-08-07T07:57:58.127Z,47.78
2022-08-07T08:00:34.181Z,47.35
2022-08-07T08:03:17.032Z,46.74
2022-08-07T08:06:03.801Z,47.36
2022-08-07T08:08:39.223Z,46.83
2022-08-07T08:11:16.246Z,46.49
2022-08-07T08:13:54.425Z,46.34
2022-08-07T08:16:35.109Z,46.12
2022-08-07T08:20:15.600Z,46.39
2022-08-07T08:22:32.696Z,45.29
2022-08-07T08:25:27.094Z,45.22
2022-08-07T08:28:38.314Z,44.45
2022-08-07T08:31:15.674Z,44.28
2022-08-07T08:33:49.545Z,44.52
2022-08-07T08:36:25.640Z,44.39
2022-08-07T08:39:02.802Z,43.77
2022-08-07T08:41:57.757Z,43.82
2022-08-07T08:44:58.120Z,43.62
2022-08-07T08:47:57.079Z,43.89
2022-08-07T08:50:39.587Z,43.82
2022-08-07T08:53:43.540Z,42.71
2022-08-07T08:56:29.480Z,42.37
2022-08-07T08:59:16.470Z,43.13
2022-08-07T09:01:59.567Z,43.44
2022-08-07T09:04:47.179Z,43.59
2022-08-07T09:07:46.167Z,43.31
2022-08-07T09:10:47.265Z,42.70
2022-08-07T09:13:35.319Z,42.86
2022-08-07T09:16:30.669Z,41.98
2022-08-07T09:20:01.003Z,41.68
2022-08-07T09:24:31.903Z,40.58
2022-08-07T09:25:40.042Z,40.35
2022-08-07T09:30:05.650Z,40.16
2022-08-07T09:31:56.741Z,40.61
2022-08-07T09:34:41.477Z,40.23
2022-08-07T09:37:53.641Z,40.43
2022-08-07T09:40:47.822Z,40.51
2022-08-07T09:44:06.073Z,40.65
2022-08-07T09:47:55.261Z,40.96
2022-08-07T09:50:26.694Z,41.52
2022-08-07T09:53:05.181Z,41.78
2022-08-07T09:56:33.802Z,41.31
2022-08-07T10:00:01.359Z,39.98
2022-08-07T10:02:55.425Z,39.91
2022-08-07T10:05:59.601Z,39.87
2022-08-07T10:09:34.347Z,40.88
2022-08-07T10:12:45.932Z,40.68
2022-08-07T10:17:03.975Z,40.71
2022-08-07T10:20:22.030Z,40.72
2022-08-07T10:24:05.956Z,40.32
2022-08-07T10:26:42.700Z,40.42
2022-08-07T10:29:33.016Z,40.00
2022-08-07T10:32:52.698Z,40.13
2022-08-07T10:35:53.655Z,39.52
2022-08-07T10:38:59.442Z,39.15
2022-08-07T10:41:52.119Z,39.17
2022-08-07T10:45:04.493Z,38.94
2022-08-07T10:48:03.784Z,39.65
2022-08-07T10:50:50.305Z,39.47
2022-08-07T10:54:03.700Z,38.87
2022-08-07T10:56:50.120Z,38.85
2022-08-07T10:59:50.358Z,38.50
2022-08-07T11:02:40.174Z,38.17
2022-08-07T11:05:50.485Z,37.57
2022-08-07T11:08:52.121Z,38.57
2022-08-07T11:11:28.101Z,37.96
2022-08-07T11:14:45.252Z,37.85
2022-08-07T11:17:23.184Z,37.83
2022-08-07T11:20:18.847Z,38.59
2022-08-07T11:23:20.708Z,38.45
2022-08-07T11:26:48.139Z,37.99
2022-08-07T11:30:10.212Z,37.76
2022-08-07T11:32:57.383Z,37.08
2022-08-07T11:36:00.251Z,37.32
2022-08-07T11:39:01.249Z,37.02
2022-08-07T11:42:02.753Z,37.10
2022-08-07T11:45:01.260Z,37.05
2022-08-07T11:47:56.311Z,37.20
2022-08-07T11:50:57.649Z,36.85
2022-08-07T11:54:01.633Z,36.80
2022-08-07T11:57:58.031Z,36.91
2022-08-07T12:01:00.213Z,37.12
2022-08-07T12:04:01.865Z,36.62
2022-08-07T12:07:02.434Z,36.50
2022-08-07T12:09:38.377Z,36.94
2022-08-07T12:12:27.906Z,36.83
2022-08-07T12:15:35.505Z,38.33
2022-08-07T12:18:56.324Z,37.48
2022-08-07T12:22:37.238Z,36.86
2022-08-07T12:26:21.453Z,36.99
2022-08-07T12:28:56.802Z,37.03
2022-08-07T12:31:53.198Z,37.06
2022-08-07T12:34:37.321Z,36.75
2022-08-07T12:37:22.933Z,35.68
2022-08-07T12:39:55.512Z,35.98
2022-08-07T12:42:32.078Z,36.07
2022-08-07T12:45:13.746Z,36.31
2022-08-07T12:48:02.715Z,36.60
2022-08-07T12:51:18.018Z,36.75
2022-08-07T12:54:38.141Z,37.13
2022-08-07T12:57:11.266Z,37.23
2022-08-07T12:59:55.154Z,36.62
2022-08-07T13:03:07.080Z,36.22
2022-08-07T13:06:21.707Z,36.02
2022-08-07T13:10:38.069Z,35.83
2022-08-07T13:12:32.208Z,36.25
2022-08-07T13:15:34.974Z,36.16
2022-08-07T13:18:40.075Z,35.84
2022-08-07T13:21:50.152Z,35.59
2022-08-07T13:24:52.419Z,35.98
2022-08-07T13:28:11.236Z,35.99
2022-08-07T13:30:41.093Z,36.03
2022-08-07T13:34:34.325Z,36.32
2022-08-07T13:37:10.995Z,36.15
2022-08-07T13:40:35.612Z,36.07
2022-08-07T13:43:02.895Z,35.78
2022-08-07T13:46:11.338Z,36.04
2022-08-07T13:48:34.453Z,36.01
2022-08-07T13:51:27.014Z,36.00
2022-08-07T13:54:09.967Z,36.11
2022-08-07T13:56:51.944Z,35.92
2022-08-07T13:59:34.251Z,35.43
2022-08-07T14:02:16.649Z,35.63
2022-08-07T14:04:54.869Z,36.14
2022-08-07T14:08:00.448Z,36.08
2022-08-07T14:10:42.415Z,36.24
2022-08-07T14:30:11.455Z,35.70
2022-08-07T14:32:57.193Z,35.61
2022-08-07T14:35:44.975Z,35.61
2022-08-07T14:38:30.491Z,35.76
2022-08-07T14:41:05.888Z,35.75
2022-08-07T14:43:56.962Z,35.69
2022-08-07T14:46:33.373Z,35.63
2022-08-07T14:49:55.816Z,35.46
2022-08-07T14:52:02.783Z,35.32
2022-08-07T14:54:42.060Z,35.22
2022-08-07T14:57:19.384Z,34.98
2022-08-07T15:02:56.931Z,35.64
2022-08-07T15:05:30.243Z,35.43
2022-08-07T15:08:00.638Z,35.04
2022-08-07T15:10:32.189Z,35.90
2022-08-07T15:13:13.770Z,36.46
2022-08-07T15:15:52.651Z,35.53
2022-08-07T15:37:04.163Z,34.93
2022-08-07T17:32:56.192Z,35.39
2022-08-07T17:35:58.533Z,35.32
2022-08-07T17:38:44.758Z,35.48
2022-08-07T17:42:01.943Z,35.69
2022-08-07T17:44:58.384Z,35.99
2022-08-07T17:47:54.157Z,36.26
2022-08-07T17:50:48.513Z,36.62
2022-08-07T17:53:59.835Z,37.09
2022-08-07T17:56:31.858Z,37.32
2022-08-07T17:59:19.689Z,37.83
2022-08-07T18:02:01.709Z,37.73
2022-08-07T18:06:03.535Z,38.20
2022-08-07T18:08:34.918Z,38.21
2022-08-07T18:12:17.690Z,38.68
2022-08-07T18:15:32.843Z,39.54
2022-08-07T18:18:44.805Z,39.81
2022-08-07T18:21:27.502Z,40.23
2022-08-07T18:24:40.356Z,40.69
2022-08-07T18:27:39.653Z,41.11
2022-08-07T18:30:32.529Z,41.77
2022-08-07T18:33:33.265Z,42.49
2022-08-07T18:36:53.815Z,43.22
2022-08-07T18:40:07.245Z,44.06
2022-08-07T18:43:37.042Z,45.13
2022-08-07T18:46:29.618Z,45.74
2022-08-07T18:50:19.460Z,47.19
2022-08-07T18:55:40.152Z,49.50
2022-08-07T18:58:23.006Z,48.47
2022-08-07T19:01:03.824Z,49.10
2022-08-07T19:03:57.367Z,49.90
2022-08-07T19:07:02.618Z,49.80
2022-08-07T19:09:58.918Z,50.04
2022-08-07T19:13:11.790Z,50.73
2022-08-07T19:17:00.588Z,50.81
2022-08-07T19:19:38.422Z,51.11
2022-08-07T19:22:45.214Z,52.22
2022-08-07T19:26:21.847Z,52.56
2022-08-07T19:28:56.697Z,52.31
2022-08-07T19:31:58.642Z,52.95
2022-08-07T19:34:34.208Z,52.39
2022-08-07T19:37:17.485Z,52.52
2022-08-07T19:39:56.445Z,52.79
2022-08-07T19:42:40.470Z,53.02
2022-08-07T19:46:06.079Z,52.67
2022-08-07T19:48:18.450Z,52.33
2022-08-07T19:50:54.474Z,53.06
2022-08-07T19:54:30.944Z,53.20
2022-08-07T19:57:51.886Z,53.03
2022-08-07T19:59:40.672Z,53.30
2022-08-07T20:02:26.860Z,52.86
2022-08-07T20:04:57.092Z,52.65
2022-08-07T20:07:47.566Z,52.92
2022-08-07T20:10:36.070Z,52.79
2022-08-07T20:13:33.577Z,52.68
2022-08-07T20:16:05.019Z,52.83
2022-08-07T20:18:36.059Z,53.07
2022-08-07T20:21:21.251Z,53.38
2022-08-07T20:24:01.354Z,53.63
2022-08-07T20:26:44.873Z,53.84
2022-08-07T20:29:48.092Z,54.01
2022-08-07T20:32:23.145Z,54.08
2022-08-07T20:35:07.694Z,54.48
2022-08-07T20:37:59.001Z,54.86
2022-08-07T20:40:41.269Z,54.77
2022-08-07T20:43:19.310Z,54.45
2022-08-07T20:46:29.108Z,55.07
2022-08-07T20:49:54.266Z,54.84
2022-08-07T20:51:35.841Z,54.62
2022-08-07T20:54:12.133Z,54.56
2022-08-07T20:56:51.979Z,54.53
2022-08-07T21:00:04.559Z,54.93
2022-08-07T21:02:39.968Z,54.80
2022-08-07T21:05:18.738Z,54.42
2022-08-07T21:08:16.850Z,54.23
2022-08-07T21:10:51.519Z,55.00
2022-08-07T21:13:24.550Z,55.47
2022-08-07T21:16:13.820Z,55.57
2022-08-07T21:18:50.385Z,55.99
2022-08-07T21:21:27.013Z,56.05
2022-08-07T21:24:16.878Z,56.29
2022-08-07T21:27:07.008Z,56.20
2022-08-07T21:30:01.649Z,55.93
2022-08-07T21:32:48.467Z,55.49
2022-08-07T21:36:03.759Z,55.03
2022-08-07T21:39:46.808Z,55.68
2022-08-07T21:42:48.427Z,54.80
2022-08-07T21:46:08.084Z,54.99
2022-08-07T21:49:16.356Z,55.46
2022-08-07T21:52:04.498Z,55.35
2022-08-07T21:54:56.816Z,55.29
2022-08-07T21:58:30.324Z,54.77
